Time;durP1;ratioP1;P1;durP2;ratioP2;P2;SDS_P1;SDS_P2;PMS_P1;PMS_P2;Temp;Humidity;BMP_temperature;BMP_pressure;BME280_temperature;BME280_humidity;BME280_pressure;Samples;Min_cycle;Max_cycle;Signal;HPM_P1;HPM_P2
2022/01/06 00:01:05;;;;;;;37.40;18.40;;;;;8.82;96156.40;;;;111912;1241;41971;-64
2022/01/06 00:03:35;;;;;;;27.30;15.50;;;;;8.80;96162.80;;;;111758;1241;41149;-65
2022/01/06 00:06:08;;;;;;;29.90;15.70;;;;;8.80;96170.00;;;;111850;1241;41175;-65
2022/01/06 00:08:38;;;;;;;32.40;17.80;;;;;8.80;96167.40;;;;111699;1243;42427;-66
2022/01/06 00:11:10;;;;;;;30.20;15.60;;;;;8.78;96162.60;;;;111888;1241;41136;-65
2022/01/06 00:16:43;;;;;;;29.30;14.90;;;;;8.80;96177.60;;;;111922;1242;41137;-65
2022/01/06 00:24:51;;;;;;;27.20;15.20;;;;;8.80;96174.60;;;;111863;1241;41696;-65
2022/01/06 00:27:20;;;;;;;27.70;14.00;;;;;8.80;96177.40;;;;111852;1240;41606;-65
2022/01/06 00:29:49;;;;;;;26.40;13.30;;;;;8.80;96179.60;;;;111812;1241;41137;-64
2022/01/06 00:32:18;;;;;;;28.40;14.10;;;;;8.80;96181.40;;;;111733;1243;41361;-68
2022/01/06 00:34:48;;;;;;;24.50;13.10;;;;;8.80;96179.60;;;;111870;1241;42295;-65
2022/01/06 00:37:17;;;;;;;25.60;13.00;;;;;8.80;96179.60;;;;111889;1241;41260;-64
2022/01/06 00:39:47;;;;;;;24.70;12.20;;;;;8.80;96182.60;;;;111861;1241;41380;-65
2022/01/06 00:42:22;;;;;;;24.20;12.40;;;;;8.80;96189.20;;;;111648;1243;41147;-65
2022/01/06 00:44:52;;;;;;;24.10;12.60;;;;;8.80;96194.60;;;;111849;1241;41137;-65
2022/01/06 00:47:23;;;;;;;;;;;;;8.80;96200.40;;;;111834;1241;41364;-64
2022/01/06 00:49:52;;;;;;;21.00;11.50;;;;;8.74;96206.00;;;;111884;1241;41194;-64
2022/01/06 00:52:21;;;;;;;20.70;11.30;;;;;8.78;96202.60;;;;111809;1241;41784;-65
2022/01/06 00:54:51;;;;;;;20.50;10.60;;;;;8.80;96201.20;;;;111679;1241;41145;-64
2022/01/06 00:57:20;;;;;;;20.30;10.50;;;;;8.80;96198.60;;;;111807;1241;41142;-66
2022/01/06 00:59:50;;;;;;;21.10;10.50;;;;;8.80;96199.20;;;;111742;1241;41151;-65
2022/01/06 01:02:19;;;;;;;20.90;11.30;;;;;8.80;96204.40;;;;111711;1243;42242;-65
2022/01/06 01:04:48;;;;;;;20.80;11.50;;;;;8.80;96204.00;;;;111864;1241;41128;-65
2022/01/06 01:07:18;;;;;;;25.00;13.20;;;;;8.88;96205.60;;;;111688;1241;41654;-67
2022/01/06 01:09:47;;;;;;;23.10;12.20;;;;;8.88;96208.80;;;;111796;1241;41140;-70
2022/01/06 01:12:16;;;;;;;31.40;17.10;;;;;8.86;96218.20;;;;111810;1243;41629;-70
2022/01/06 01:15:06;;;;;;;39.00;18.60;;;;;8.90;96226.40;;;;111867;1240;41143;-68
2022/01/06 01:17:35;;;;;;;33.60;18.80;;;;;8.70;96231.40;;;;111859;1241;41929;-70
2022/01/06 01:20:06;;;;;;;33.40;17.80;;;;;8.70;96241.20;;;;111880;1241;41334;-69
2022/01/06 01:22:35;;;;;;;32.30;18.80;;;;;8.60;96248.00;;;;111868;1241;41133;-69
2022/01/06 01:25:05;;;;;;;32.60;17.90;;;;;8.50;96243.00;;;;111893;1241;42040;-68
2022/01/06 01:27:38;;;;;;;29.40;16.70;;;;;8.50;96243.60;;;;111852;1241;41121;-69
2022/01/06 01:30:14;;;;;;;32.30;17.80;;;;;8.40;96241.40;;;;111860;1241;41226;-67
2022/01/06 01:32:50;;;;;;;32.90;17.30;;;;;8.40;96243.60;;;;111829;1241;41171;-68
2022/01/06 01:35:20;;;;;;;30.60;17.30;;;;;8.40;96241.40;;;;111867;1241;42409;-69
2022/01/06 01:37:50;;;;;;;34.00;18.20;;;;;8.40;96236.20;;;;111894;1241;41595;-68
2022/01/06 01:40:19;;;;;;;32.10;17.20;;;;;8.40;96240.40;;;;111890;1242;41716;-70
2022/01/06 01:42:49;;;;;;;28.90;15.80;;;;;8.42;96242.40;;;;111841;1241;42137;-70
2022/01/06 01:45:24;;;;;;;26.60;14.00;;;;;8.46;96239.00;;;;111891;1241;41622;-70
2022/01/06 01:47:54;;;;;;;25.50;13.20;;;;;8.48;96238.40;;;;111899;1243;41247;-68
2022/01/06 01:50:24;;;;;;;25.10;13.60;;;;;8.50;96241.40;;;;111643;1242;41706;-69
2022/01/06 01:52:59;;;;;;;30.10;16.60;;;;;8.50;96240.40;;;;111827;1241;41153;-69
2022/01/06 01:55:32;;;;;;;28.70;13.80;;;;;8.50;96242.80;;;;111863;1241;41602;-70
2022/01/06 01:58:02;;;;;;;22.00;12.00;;;;;8.50;96238.20;;;;111710;1243;41604;-69
2022/01/06 02:00:31;;;;;;;19.50;10.90;;;;;8.50;96241.40;;;;111841;1243;41333;-70
2022/01/06 02:03:01;;;;;;;17.30;9.50;;;;;8.50;96238.40;;;;111856;1241;41809;-68
2022/01/06 02:05:30;;;;;;;17.20;8.50;;;;;8.50;96231.20;;;;111802;1242;41161;-68
2022/01/06 02:08:00;;;;;;;17.10;8.70;;;;;8.50;96230.60;;;;111833;1241;41608;-68
2022/01/06 02:10:30;;;;;;;17.90;8.90;;;;;8.50;96241.40;;;;111899;1241;41708;-69
2022/01/06 02:13:01;;;;;;;;;;;;;8.52;96244.80;;;;111627;1244;42145;-69
2022/01/06 02:15:31;;;;;;;17.30;8.50;;;;;8.50;96238.80;;;;111874;1241;42243;-67
2022/01/06 02:18:02;;;;;;;17.60;8.90;;;;;8.50;96236.00;;;;111604;1243;41526;-66
2022/01/06 02:20:32;;;;;;;14.80;7.90;;;;;8.50;96241.20;;;;111825;1241;41258;-70
2022/01/06 02:23:01;;;;;;;18.30;8.00;;;;;8.50;96237.20;;;;111845;1241;41250;-71
2022/01/06 02:25:33;;;;;;;16.40;8.40;;;;;8.50;96239.60;;;;111849;1241;41133;-70
2022/01/06 02:28:03;;;;;;;17.20;9.20;;;;;8.50;96239.00;;;;111848;1241;41381;-69
2022/01/06 02:30:34;;;;;;;17.80;8.90;;;;;8.50;96241.40;;;;111859;1241;41132;-69
2022/01/06 02:33:06;;;;;;;18.10;8.90;;;;;8.40;96246.60;;;;111838;1242;41126;-69
2022/01/06 02:35:35;;;;;;;15.90;9.00;;;;;8.40;96244.60;;;;111887;1241;42013;-69
2022/01/06 02:38:05;;;;;;;19.70;9.80;;;;;8.40;96242.80;;;;111779;1242;41610;-65
2022/01/06 02:40:34;;;;;;;21.30;10.50;;;;;8.40;96238.40;;;;111924;1241;41173;-64
2022/01/06 02:43:06;;;;;;;19.00;10.10;;;;;8.34;96236.40;;;;111894;1240;41168;-70
2022/01/06 02:45:36;;;;;;;19.70;10.60;;;;;8.30;96229.00;;;;111781;1242;41245;-70
2022/01/06 02:48:09;;;;;;;21.30;11.30;;;;;8.30;96227.60;;;;111586;1241;41281;-64
2022/01/06 02:50:44;;;;;;;19.60;10.10;;;;;8.20;96236.60;;;;111818;1242;41184;-64
2022/01/06 02:53:15;;;;;;;19.00;9.20;;;;;8.18;96244.00;;;;111596;1244;41133;-64
2022/01/06 02:55:56;;;;;;;17.40;9.20;;;;;8.10;96240.60;;;;111737;1241;41268;-64
2022/01/06 02:58:42;;;;;;;18.20;8.70;;;;;8.00;96240.80;;;;111534;1243;41655;-64
2022/01/06 03:01:13;;;;;;;18.90;9.50;;;;;8.00;96233.80;;;;111811;1243;41508;-64
2022/01/06 03:03:44;;;;;;;21.80;11.50;;;;;8.00;96236.20;;;;111419;1243;41152;-64
2022/01/06 03:06:14;;;;;;;21.50;12.30;;;;;7.90;96234.60;;;;111682;1241;41153;-65
2022/01/06 03:08:43;;;;;;;26.60;14.80;;;;;7.88;96227.60;;;;111764;1240;41509;-70
2022/01/06 03:11:24;;;;;;;24.20;13.20;;;;;7.80;96224.80;;;;111588;1243;41137;-71
2022/01/06 03:13:55;;;;;;;21.80;12.50;;;;;7.80;96226.00;;;;111756;1241;41137;-71
2022/01/06 03:16:26;;;;;;;22.50;11.70;;;;;7.70;96231.20;;;;111816;1242;41675;-69
2022/01/06 03:18:56;;;;;;;;;;;;;7.70;96222.20;;;;111912;1241;41873;-71
2022/01/06 03:21:26;;;;;;;18.10;9.70;;;;;7.60;96224.00;;;;111830;1241;41382;-70
2022/01/06 03:23:56;;;;;;;21.20;10.70;;;;;7.60;96232.80;;;;111784;1242;42345;-71
2022/01/06 03:26:26;;;;;;;19.30;10.40;;;;;7.58;96233.80;;;;111687;1241;41134;-70
2022/01/06 03:28:56;;;;;;;18.30;9.50;;;;;7.50;96230.80;;;;111621;1241;41142;-68
2022/01/06 03:31:26;;;;;;;20.80;10.20;;;;;7.50;96235.40;;;;111661;1242;41124;-69
2022/01/06 03:33:56;;;;;;;18.10;9.10;;;;;7.50;96236.20;;;;111786;1243;41857;-70
2022/01/06 03:36:26;;;;;;;16.40;8.40;;;;;7.40;96244.80;;;;111819;1242;41140;-70
2022/01/06 03:38:57;;;;;;;15.30;8.10;;;;;7.40;96248.00;;;;111848;1241;41513;-70
2022/01/06 03:41:27;;;;;;;14.90;7.50;;;;;7.32;96246.40;;;;111716;1242;41127;-70
2022/01/06 03:43:57;;;;;;;13.90;7.40;;;;;7.30;96246.00;;;;111673;1241;41727;-71
2022/01/06 03:46:29;;;;;;;13.90;6.80;;;;;7.30;96245.60;;;;111656;1242;41538;-69
2022/01/06 03:48:59;;;;;;;15.90;8.40;;;;;7.30;96253.20;;;;111808;1243;41920;-70
2022/01/06 03:51:30;;;;;;;16.80;8.50;;;;;7.30;96257.00;;;;111801;1243;41638;-67
2022/01/06 03:54:00;;;;;;;15.10;8.10;;;;;7.30;96263.20;;;;111673;1243;41377;-67
2022/01/06 03:56:30;;;;;;;15.70;7.70;;;;;7.28;96268.20;;;;111705;1243;41718;-67
2022/01/06 03:59:01;;;;;;;14.50;7.10;;;;;7.20;96267.80;;;;111582;1243;42045;-68
2022/01/06 04:01:31;;;;;;;15.00;7.00;;;;;7.20;96270.80;;;;111685;1241;41469;-67
2022/01/06 04:04:03;;;;;;;15.20;7.60;;;;;7.18;96268.00;;;;111752;1242;41144;-66
2022/01/06 04:06:35;;;;;;;20.80;10.00;;;;;7.10;96273.20;;;;111258;1242;41716;-70
2022/01/06 04:09:06;;;;;;;21.30;10.60;;;;;7.10;96276.40;;;;111391;1242;41258;-68
2022/01/06 04:11:35;;;;;;;;;;;;;7.00;96280.80;;;;111673;1241;41153;-70
2022/01/06 04:14:05;;;;;;;17.30;8.90;;;;;6.96;96282.80;;;;111641;1241;41151;-69
2022/01/06 04:16:40;;;;;;;17.10;8.90;;;;;6.90;96289.60;;;;111456;1243;41247;-69
2022/01/06 04:19:09;;;;;;;16.40;8.50;;;;;6.90;96292.00;;;;111413;1243;41587;-69
2022/01/06 04:21:40;;;;;;;16.30;7.50;;;;;6.80;96297.00;;;;111402;1242;41258;-69
2022/01/06 04:24:11;;;;;;;14.70;7.60;;;;;6.80;96299.00;;;;111433;1243;41255;-66
2022/01/06 04:26:41;;;;;;;15.30;7.80;;;;;6.80;96298.20;;;;111717;1243;41417;-69
2022/01/06 04:29:11;;;;;;;24.20;11.60;;;;;6.80;96301.20;;;;111689;1243;42454;-66
2022/01/06 04:31:42;;;;;;;20.00;10.90;;;;;6.80;96305.80;;;;111409;1244;41447;-68
2022/01/06 04:34:11;;;;;;;20.80;11.30;;;;;6.80;96316.60;;;;111598;1243;41789;-69
2022/01/06 04:36:47;;;;;;;20.90;11.40;;;;;6.80;96314.20;;;;111647;1243;41610;-68
2022/01/06 04:39:17;;;;;;;21.90;11.70;;;;;6.80;96311.80;;;;111905;1244;41142;-68
2022/01/06 04:41:47;;;;;;;20.70;11.10;;;;;6.80;96308.20;;;;111731;1243;41117;-65
2022/01/06 04:44:16;;;;;;;19.50;10.10;;;;;6.80;96310.40;;;;111780;1243;41125;-65
2022/01/06 04:46:46;;;;;;;18.40;9.70;;;;;6.90;96313.40;;;;111786;1243;41118;-66
2022/01/06 04:49:15;;;;;;;17.00;9.60;;;;;6.90;96321.00;;;;111805;1241;41382;-67
2022/01/06 04:51:44;;;;;;;19.70;9.90;;;;;6.90;96322.00;;;;111866;1241;41311;-67
2022/01/06 04:54:14;;;;;;;18.80;10.10;;;;;6.96;96319.00;;;;111729;1242;42699;-65
2022/01/06 04:56:47;;;;;;;19.20;10.30;;;;;6.96;96319.80;;;;111791;1242;41372;-69
2022/01/06 04:59:19;;;;;;;23.50;11.30;;;;;7.00;96311.20;;;;111522;1241;41901;-65
2022/01/06 05:01:48;;;;;;;19.80;10.80;;;;;6.98;96312.40;;;;111686;1241;41251;-65
2022/01/06 05:04:18;;;;;;;20.10;9.80;;;;;6.98;96323.40;;;;111660;1243;41143;-65
2022/01/06 05:06:50;;;;;;;19.10;10.00;;;;;6.98;96329.40;;;;111693;1241;41235;-66
2022/01/06 05:09:22;;;;;;;16.80;9.40;;;;;6.90;96330.80;;;;111586;1244;41149;-69
2022/01/06 05:11:52;;;;;;;18.30;9.70;;;;;6.94;96328.00;;;;111565;1242;42350;-66
2022/01/06 05:14:22;;;;;;;17.50;9.50;;;;;7.00;96333.40;;;;111751;1241;41519;-66
2022/01/06 05:16:52;;;;;;;17.40;10.00;;;;;7.00;96328.20;;;;111359;1241;41136;-68
2022/01/06 05:19:22;;;;;;;24.60;12.90;;;;;7.00;96327.00;;;;111726;1241;41937;-70
2022/01/06 05:21:53;;;;;;;26.60;13.60;;;;;7.00;96330.60;;;;111749;1241;41577;-69
2022/01/06 05:24:23;;;;;;;21.00;11.10;;;;;7.00;96329.80;;;;111865;1241;41143;-68
2022/01/06 05:26:57;;;;;;;18.70;9.80;;;;;7.00;96327.80;;;;111840;1241;41241;-69
2022/01/06 05:29:26;;;;;;;19.90;9.90;;;;;7.00;96335.60;;;;111810;1241;41196;-69
2022/01/06 05:31:55;;;;;;;19.50;11.20;;;;;7.10;96337.40;;;;111731;1241;41699;-66
2022/01/06 05:34:25;;;;;;;21.80;11.10;;;;;7.10;96338.20;;;;111680;1243;41253;-70
2022/01/06 05:36:54;;;;;;;26.10;13.60;;;;;7.10;96337.20;;;;111744;1241;41762;-69
2022/01/06 05:39:24;;;;;;;25.00;13.00;;;;;7.10;96335.00;;;;111762;1241;41189;-69
2022/01/06 05:41:53;;;;;;;22.10;12.30;;;;;7.10;96327.80;;;;111674;1241;41454;-70
2022/01/06 05:44:24;;;;;;;26.20;14.10;;;;;7.10;96328.00;;;;111431;1241;41684;-68
2022/01/06 05:46:54;;;;;;;23.50;12.60;;;;;7.10;96325.60;;;;111726;1241;41166;-69
2022/01/06 05:49:23;;;;;;;20.50;10.90;;;;;7.14;96326.20;;;;111710;1243;41121;-69
2022/01/06 05:51:52;;;;;;;18.50;9.60;;;;;7.20;96326.60;;;;111874;1240;41195;-69
2022/01/06 05:54:22;;;;;;;20.80;10.70;;;;;7.20;96330.00;;;;111830;1242;41936;-69
2022/01/06 05:56:52;;;;;;;20.00;10.30;;;;;7.20;96330.80;;;;111828;1241;42377;-64
2022/01/06 05:59:21;;;;;;;18.90;9.70;;;;;7.20;96324.40;;;;111726;1243;41193;-68
2022/01/06 06:01:50;;;;;;;17.20;9.50;;;;;7.28;96326.20;;;;111827;1241;41604;-67
2022/01/06 06:04:20;;;;;;;17.00;9.00;;;;;7.30;96321.40;;;;111872;1241;41486;-65
2022/01/06 06:06:49;;;;;;;17.20;9.10;;;;;7.30;96316.00;;;;111810;1241;41487;-69
2022/01/06 06:09:18;;;;;;;21.00;11.80;;;;;7.30;96315.20;;;;111696;1241;41623;-69
2022/01/06 06:11:48;;;;;;;20.50;10.90;;;;;7.40;96319.20;;;;111529;1244;42049;-66
2022/01/06 06:14:17;;;;;;;18.40;10.20;;;;;7.40;96324.40;;;;111754;1244;41143;-70
2022/01/06 06:16:47;;;;;;;19.50;9.30;;;;;7.40;96321.60;;;;111828;1241;41143;-66
2022/01/06 06:19:16;;;;;;;18.70;9.60;;;;;7.44;96321.80;;;;111726;1243;41130;-65
2022/01/06 06:21:46;;;;;;;21.00;10.10;;;;;7.50;96328.60;;;;111756;1241;41137;-66
2022/01/06 06:24:15;;;;;;;19.10;9.90;;;;;7.50;96324.20;;;;111827;1241;41421;-69
2022/01/06 06:26:44;;;;;;;19.70;10.70;;;;;7.50;96323.40;;;;111791;1243;41606;-65
2022/01/06 06:29:13;;;;;;;24.40;13.40;;;;;7.50;96321.80;;;;111783;1243;41291;-65
2022/01/06 06:31:42;;;;;;;24.90;13.60;;;;;7.50;96331.80;;;;111717;1241;41832;-69
2022/01/06 06:34:12;;;;;;;26.90;16.00;;;;;7.50;96328.80;;;;111801;1241;41207;-69
2022/01/06 06:36:41;;;;;;;29.00;16.70;;;;;7.50;96330.80;;;;111848;1241;41175;-68
2022/01/06 06:39:11;;;;;;;32.10;18.20;;;;;7.50;96330.60;;;;111703;1241;41166;-69
2022/01/06 06:41:40;;;;;;;28.80;15.60;;;;;7.50;96336.60;;;;111822;1241;41366;-66
2022/01/06 06:44:09;;;;;;;24.80;13.40;;;;;7.50;96332.20;;;;111706;1244;41250;-70
2022/01/06 06:46:38;;;;;;;22.00;12.40;;;;;7.50;96325.80;;;;111849;1242;42370;-69
2022/01/06 06:49:08;;;;;;;29.40;15.30;;;;;7.50;96327.60;;;;111810;1241;42990;-68
2022/01/06 06:51:37;;;;;;;32.40;17.60;;;;;7.52;96331.20;;;;111602;1242;41255;-68
2022/01/06 06:54:09;;;;;;;30.70;18.20;;;;;7.58;96337.00;;;;111644;1244;42696;-69
2022/01/06 06:56:38;;;;;;;25.80;13.70;;;;;7.60;96334.00;;;;111745;1241;41137;-71
2022/01/06 06:59:08;;;;;;;25.70;12.70;;;;;7.60;96343.80;;;;111843;1241;41768;-71
2022/01/06 07:01:37;;;;;;;23.30;12.20;;;;;7.60;96345.00;;;;111679;1241;41615;-72
2022/01/06 07:04:06;;;;;;;23.70;11.50;;;;;7.60;96355.60;;;;111696;1243;41238;-72
2022/01/06 07:06:35;;;;;;;21.10;11.30;;;;;7.60;96364.60;;;;111725;1244;41213;-72
2022/01/06 07:09:04;;;;;;;20.30;10.90;;;;;7.60;96357.80;;;;111752;1241;41132;-69
2022/01/06 07:11:34;;;;;;;23.70;12.40;;;;;7.68;96357.00;;;;111695;1243;42358;-66
2022/01/06 07:14:03;;;;;;;24.50;13.90;;;;;7.70;96367.00;;;;111759;1243;41971;-71
2022/01/06 07:16:32;;;;;;;23.90;13.30;;;;;7.70;96373.40;;;;111962;1244;41860;-64
2022/01/06 07:19:02;;;;;;;25.80;14.60;;;;;7.70;96369.60;;;;111842;1241;41142;-70
2022/01/06 07:21:31;;;;;;;40.80;20.30;;;;;7.70;96388.40;;;;111808;1241;41164;-71
2022/01/06 07:24:00;;;;;;;31.00;16.20;;;;;7.60;96411.80;;;;111797;1241;41500;-72
2022/01/06 07:26:29;;;;;;;22.60;13.30;;;;;7.50;96389.00;;;;111837;1242;41162;-71
2022/01/06 07:28:58;;;;;;;27.20;13.20;;;;;7.42;96377.40;;;;111734;1244;41920;-70
2022/01/06 07:31:27;;;;;;;26.20;13.10;;;;;7.44;96388.60;;;;111838;1241;41130;-70
2022/01/06 07:33:56;;;;;;;25.50;13.60;;;;;7.50;96402.80;;;;111887;1241;41117;-72
2022/01/06 07:36:25;;;;;;;27.50;15.10;;;;;7.50;96409.60;;;;112007;1241;41816;-68
2022/01/06 07:38:55;;;;;;;44.80;22.00;;;;;7.48;96409.20;;;;111833;1241;41543;-67
2022/01/06 07:41:24;;;;;;;39.40;19.40;;;;;7.50;96431.80;;;;111814;1243;41136;-71
2022/01/06 07:43:54;;;;;;;29.40;16.20;;;;;7.30;96450.20;;;;111732;1242;41146;-71
2022/01/06 07:46:23;;;;;;;20.30;10.80;;;;;7.30;96453.60;;;;111743;1244;41137;-71
2022/01/06 07:48:56;;;;;;;18.50;9.50;;;;;7.30;96460.00;;;;111817;1241;41422;-72
2022/01/06 07:51:27;;;;;;;16.50;8.00;;;;;7.30;96468.80;;;;111802;1241;41172;-69
2022/01/06 07:53:56;;;;;;;;;;;;;7.40;96479.40;;;;111846;1243;41998;-72
2022/01/06 07:56:25;;;;;;;17.60;10.30;;;;;7.48;96473.00;;;;111756;1242;41172;-71
2022/01/06 07:58:55;;;;;;;17.00;8.90;;;;;7.58;96463.40;;;;111829;1241;41146;-70
2022/01/06 08:01:24;;;;;;;21.10;10.90;;;;;7.50;96451.40;;;;111819;1241;41890;-71
2022/01/06 08:03:54;;;;;;;20.10;11.60;;;;;7.60;96458.00;;;;111855;1242;41931;-72
2022/01/06 08:06:23;;;;;;;20.00;12.60;;;;;7.50;96463.20;;;;111817;1241;41142;-70
2022/01/06 08:08:52;;;;;;;20.70;12.00;;;;;7.52;96477.00;;;;111773;1243;41256;-68
2022/01/06 08:11:22;;;;;;;21.50;11.80;;;;;7.50;96489.60;;;;111760;1243;41299;-67
2022/01/06 08:13:51;;;;;;;19.90;11.70;;;;;7.40;96493.20;;;;111791;1244;41196;-71
2022/01/06 08:16:20;;;;;;;18.20;9.60;;;;;7.40;96482.40;;;;111771;1242;41139;-71
2022/01/06 08:18:49;;;;;;;16.70;9.70;;;;;7.40;96478.40;;;;111840;1241;41188;-71
2022/01/06 08:21:18;;;;;;;16.50;8.50;;;;;7.40;96475.40;;;;111839;1242;41112;-71
2022/01/06 08:23:47;;;;;;;18.80;10.30;;;;;7.46;96474.60;;;;111746;1243;41631;-71
2022/01/06 08:26:16;;;;;;;18.40;8.60;;;;;7.50;96470.20;;;;111779;1244;41713;-70
2022/01/06 08:28:46;;;;;;;14.70;7.60;;;;;7.50;96466.60;;;;111780;1244;41117;-70
2022/01/06 08:31:16;;;;;;;15.60;8.20;;;;;7.54;96445.80;;;;111780;1241;41980;-71
2022/01/06 08:33:45;;;;;;;15.50;8.00;;;;;7.60;96441.00;;;;111824;1244;41152;-72
2022/01/06 08:36:16;;;;;;;15.20;7.30;;;;;7.62;96450.00;;;;111613;1244;42368;-70
2022/01/06 08:38:45;;;;;;;16.30;8.60;;;;;7.70;96456.00;;;;111951;1241;41144;-70
2022/01/06 08:41:14;;;;;;;15.10;7.80;;;;;7.80;96462.80;;;;111675;1241;41572;-70
2022/01/06 08:43:46;;;;;;;16.50;8.00;;;;;7.80;96462.40;;;;111737;1244;41258;-71
2022/01/06 08:46:15;;;;;;;20.20;10.80;;;;;7.90;96473.20;;;;111809;1241;41139;-71
2022/01/06 08:48:44;;;;;;;21.30;11.40;;;;;7.90;96476.80;;;;111858;1241;41129;-71
2022/01/06 08:51:14;;;;;;;19.60;9.30;;;;;7.90;96482.60;;;;111775;1243;41148;-72
2022/01/06 08:53:43;;;;;;;20.50;10.30;;;;;7.80;96491.20;;;;111294;1244;41906;-70
2022/01/06 08:56:12;;;;;;;16.70;9.00;;;;;7.80;96500.20;;;;111652;1244;41140;-70
2022/01/06 08:58:41;;;;;;;19.70;7.70;;;;;7.78;96500.00;;;;111659;1243;42370;-71
2022/01/06 09:01:12;;;;;;;14.10;7.50;;;;;7.80;96508.00;;;;111001;1243;554370;-66
2022/01/06 09:03:41;;;;;;;15.60;8.10;;;;;7.80;96503.60;;;;111652;1244;41238;-69
2022/01/06 09:06:10;;;;;;;14.10;7.10;;;;;7.80;96510.20;;;;111686;1244;41627;-67
2022/01/06 09:08:39;;;;;;;12.70;6.20;;;;;7.80;96511.60;;;;111672;1244;41315;-69
2022/01/06 09:11:09;;;;;;;12.40;6.30;;;;;7.80;96519.60;;;;111820;1243;41141;-71
2022/01/06 09:13:38;;;;;;;10.90;5.40;;;;;7.80;96534.00;;;;111677;1244;41175;-75
2022/01/06 09:16:08;;;;;;;12.70;6.00;;;;;7.80;96529.20;;;;111726;1244;42751;-68
2022/01/06 09:18:39;;;;;;;14.00;6.00;;;;;7.80;96542.00;;;;111777;1243;41114;-67
2022/01/06 09:21:09;;;;;;;13.40;7.40;;;;;7.80;96542.60;;;;111551;1243;41993;-65
2022/01/06 09:23:40;;;;;;;11.50;6.60;;;;;7.80;96529.60;;;;111433;1244;41475;-67
2022/01/06 09:26:09;;;;;;;12.50;6.60;;;;;7.80;96535.40;;;;111785;1244;41584;-67
2022/01/06 09:28:39;;;;;;;12.10;6.10;;;;;7.70;96542.60;;;;111829;1244;41208;-71
2022/01/06 09:31:08;;;;;;;12.50;6.90;;;;;7.70;96537.80;;;;111476;1244;41202;-70
2022/01/06 09:33:37;;;;;;;11.80;6.20;;;;;7.70;96551.00;;;;111696;1242;41283;-69
2022/01/06 09:36:06;;;;;;;11.30;6.30;;;;;7.70;96556.20;;;;111824;1244;41280;-66
2022/01/06 09:38:36;;;;;;;12.70;6.90;;;;;7.70;96558.60;;;;111630;1244;42141;-69
2022/01/06 09:41:06;;;;;;;11.90;5.70;;;;;7.68;96561.60;;;;111551;1244;41128;-70
2022/01/06 09:43:35;;;;;;;11.50;5.80;;;;;7.60;96559.00;;;;111768;1242;42475;-66
2022/01/06 09:46:08;;;;;;;11.00;5.50;;;;;7.60;96559.40;;;;111768;1242;41127;-71
2022/01/06 09:48:40;;;;;;;8.90;4.50;;;;;7.60;96561.40;;;;111442;1244;41568;-70
2022/01/06 09:51:10;;;;;;;10.50;5.10;;;;;7.60;96565.00;;;;111807;1244;41263;-65
2022/01/06 09:53:40;;;;;;;9.20;4.40;;;;;7.60;96562.60;;;;111452;1244;41894;-67
2022/01/06 09:56:09;;;;;;;9.70;4.10;;;;;7.58;96565.60;;;;111473;1244;41748;-67
2022/01/06 09:58:39;;;;;;;10.20;4.90;;;;;7.58;96565.80;;;;111539;1244;42613;-72
2022/01/06 10:01:07;;;;;;;7.80;3.50;;;;;7.60;96567.00;;;;111774;1244;41163;-72
2022/01/06 10:03:44;;;;;;;7.00;3.10;;;;;7.50;96566.60;;;;111801;1244;41244;-71
2022/01/06 10:06:15;;;;;;;7.00;3.00;;;;;7.48;96573.20;;;;111700;1244;41926;-67
2022/01/06 10:09:03;;;;;;;6.10;2.60;;;;;7.42;96574.80;;;;111742;1244;41876;-68
2022/01/06 10:11:33;;;;;;;6.10;2.70;;;;;7.30;96576.00;;;;111719;1244;41406;-70
2022/01/06 10:14:10;;;;;;;;;;;;;7.30;96582.80;;;;111513;1244;41609;-68
2022/01/06 10:16:44;;;;;;;6.20;2.70;;;;;7.20;96583.00;;;;111702;1242;41149;-71
2022/01/06 10:19:16;;;;;;;7.40;2.70;;;;;7.20;96577.80;;;;111663;1244;41126;-71
2022/01/06 10:21:48;;;;;;;6.10;2.30;;;;;7.18;96573.60;;;;111837;1244;41266;-71
2022/01/06 10:24:19;;;;;;;;;;;;;7.10;96574.20;;;;111896;1241;41193;-71
2022/01/06 10:26:55;;;;;;;5.30;2.40;;;;;7.10;96578.00;;;;111952;1241;41125;-70
2022/01/06 10:29:43;;;;;;;6.30;2.10;;;;;7.00;96581.00;;;;111877;1241;41292;-72
2022/01/06 10:32:12;;;;;;;4.50;1.90;;;;;7.00;96583.80;;;;111936;1243;41166;-71
2022/01/06 10:34:43;;;;;;;3.60;1.80;;;;;6.90;96595.40;;;;111900;1242;41114;-70
2022/01/06 10:37:30;;;;;;;3.90;1.80;;;;;6.90;96604.80;;;;111784;1242;41230;-72
2022/01/06 10:40:04;;;;;;;5.00;2.00;;;;;6.90;96614.60;;;;111954;1241;41126;-70
2022/01/06 10:42:36;;;;;;;4.90;1.90;;;;;6.82;96615.60;;;;111874;1244;41233;-68
2022/01/06 10:45:14;;;;;;;3.60;1.70;;;;;6.80;96628.20;;;;111843;1243;41187;-73
2022/01/06 10:47:49;;;;;;;4.70;1.80;;;;;6.80;96640.80;;;;111461;1244;41606;-71
2022/01/06 10:50:18;;;;;;;3.60;1.70;;;;;6.80;96636.60;;;;111642;1244;41933;-70
2022/01/06 10:52:54;;;;;;;3.70;1.80;;;;;6.76;96636.40;;;;111719;1244;41120;-71
2022/01/06 10:55:28;;;;;;;4.10;1.80;;;;;6.70;96637.60;;;;111503;1244;41307;-71
2022/01/06 10:58:05;;;;;;;5.30;1.90;;;;;6.70;96644.20;;;;111639;1244;41592;-71
2022/01/06 11:00:44;;;;;;;4.60;1.70;;;;;6.70;96641.40;;;;111785;1244;41703;-72
2022/01/06 11:03:15;;;;;;;4.70;1.80;;;;;6.62;96649.00;;;;111511;1244;41204;-71
2022/01/06 11:05:53;;;;;;;3.10;1.60;;;;;6.60;96640.60;;;;111737;1243;42387;-71
2022/01/06 11:08:36;;;;;;;3.40;1.80;;;;;6.60;96648.80;;;;111763;1244;41685;-70
2022/01/06 11:13:42;;;;;;;3.00;1.70;;;;;6.60;96655.80;;;;111767;1241;41617;-69
2022/01/06 11:16:14;;;;;;;3.40;1.80;;;;;6.60;96655.80;;;;111342;1245;42368;-71
2022/01/06 11:18:57;;;;;;;3.70;1.70;;;;;6.60;96657.00;;;;111681;1242;41621;-72
2022/01/06 11:21:34;;;;;;;3.00;1.70;;;;;6.60;96662.20;;;;111838;1244;41128;-69
2022/01/06 11:24:17;;;;;;;3.20;1.70;;;;;6.60;96669.40;;;;111555;1244;41148;-72
2022/01/06 11:27:03;;;;;;;3.80;1.90;;;;;6.60;96681.80;;;;111392;1244;42162;-72
2022/01/06 11:29:39;;;;;;;3.50;1.70;;;;;6.60;96685.20;;;;111741;1244;41507;-71
2022/01/06 11:32:24;;;;;;;4.00;1.90;;;;;6.56;96691.80;;;;111921;1242;41605;-71
2022/01/06 11:35:07;;;;;;;4.50;2.10;;;;;6.50;96693.60;;;;111892;1242;41324;-70
2022/01/06 11:37:50;;;;;;;3.20;1.70;;;;;6.40;96700.60;;;;111757;1241;41251;-69
2022/01/06 11:40:33;;;;;;;2.90;1.70;;;;;6.40;96701.20;;;;111728;1244;41149;-69
2022/01/06 11:43:04;;;;;;;3.00;1.70;;;;;6.34;96697.40;;;;111434;1245;41807;-66
2022/01/06 11:45:33;;;;;;;4.00;1.80;;;;;6.40;96699.80;;;;111773;1243;41258;-66
2022/01/06 11:48:08;;;;;;;4.20;1.90;;;;;6.40;96702.40;;;;111802;1244;41633;-67
2022/01/06 11:50:41;;;;;;;4.60;2.00;;;;;6.40;96703.20;;;;111734;1244;41145;-68
2022/01/06 11:53:10;;;;;;;4.00;1.70;;;;;6.40;96709.40;;;;111728;1244;41933;-69
2022/01/06 11:55:43;;;;;;;2.60;1.60;;;;;6.40;96717.00;;;;111666;1244;41712;-69
2022/01/06 11:58:17;;;;;;;2.80;1.70;;;;;6.44;96726.00;;;;111656;1243;41481;-69
2022/01/06 12:00:57;;;;;;;3.20;1.80;;;;;6.50;96724.80;;;;111665;1241;41896;-69
2022/01/06 12:03:33;;;;;;;4.90;2.20;;;;;6.40;96734.60;;;;111740;1244;41627;-70
2022/01/06 12:06:03;;;;;;;4.10;1.90;;;;;6.30;96738.20;;;;111755;1244;41386;-70
2022/01/06 12:08:39;;;;;;;3.10;1.80;;;;;6.30;96739.20;;;;111812;1244;41896;-70
2022/01/06 12:11:33;;;;;;;3.50;1.80;;;;;6.30;96741.40;;;;111741;1241;41108;-69
2022/01/06 12:14:02;;;;;;;5.60;2.30;;;;;6.20;96743.80;;;;111710;1241;41613;-67
2022/01/06 12:16:34;;;;;;;4.20;2.10;;;;;6.20;96745.80;;;;111416;1244;42390;-69
2022/01/06 12:19:21;;;;;;;5.70;2.60;;;;;6.20;96739.60;;;;111677;1241;41595;-69
2022/01/06 12:21:50;;;;;;;6.90;2.40;;;;;6.10;96746.20;;;;111618;1244;41185;-72
2022/01/06 12:24:19;;;;;;;4.60;2.10;;;;;6.10;96743.60;;;;111920;1244;41168;-68
2022/01/06 12:26:48;;;;;;;4.00;2.00;;;;;6.08;96745.00;;;;111722;1241;41147;-70
2022/01/06 12:29:20;;;;;;;5.60;2.30;;;;;6.10;96746.20;;;;111748;1242;41134;-71
2022/01/06 12:31:49;;;;;;;4.20;2.10;;;;;6.10;96748.40;;;;111838;1244;40773;-70
2022/01/06 12:34:20;;;;;;;5.00;2.10;;;;;6.10;96748.80;;;;111408;1244;41645;-69
2022/01/06 12:36:49;;;;;;;4.40;2.10;;;;;6.20;96750.80;;;;111454;1244;42341;-69
2022/01/06 12:39:20;;;;;;;4.90;2.20;;;;;6.20;96754.80;;;;111697;1243;41143;-66